sensor_id;sensor_type;location;lat;lon;timestamp;pressure;altitude;pressure_sealevel;temperature;humidity
56671;BME280;42545;50.054;8.306;2022-07-29T00:01:26;99840.28;;;21.78;44.78
56671;BME280;42545;50.054;8.306;2022-07-29T00:03:53;99828.84;;;21.71;44.78
56671;BME280;42545;50.054;8.306;2022-07-29T00:06:20;99811.13;;;21.65;44.31
56671;BME280;42545;50.054;8.306;2022-07-29T00:08:47;99813.97;;;21.61;44.48
56671;BME280;42545;50.054;8.306;2022-07-29T00:11:15;99810.53;;;21.56;44.42
56671;BME280;42545;50.054;8.306;2022-07-29T00:13:43;99791.19;;;21.44;44.98
56671;BME280;42545;50.054;8.306;2022-07-29T00:16:10;99793.09;;;21.41;46.08
56671;BME280;42545;50.054;8.306;2022-07-29T00:18:36;99795.22;;;21.31;46.21
56671;BME280;42545;50.054;8.306;2022-07-29T00:21:04;99785.63;;;21.22;48.58
56671;BME280;42545;50.054;8.306;2022-07-29T00:23:31;99780.66;;;21.10;50.22
56671;BME280;42545;50.054;8.306;2022-07-29T00:25:57;99777.47;;;20.97;51.28
56671;BME280;42545;50.054;8.306;2022-07-29T00:28:24;99776.06;;;20.85;52.86
56671;BME280;42545;50.054;8.306;2022-07-29T00:30:52;99775.56;;;20.72;52.96
56671;BME280;42545;50.054;8.306;2022-07-29T00:33:19;99782.19;;;20.59;53.94
56671;BME280;42545;50.054;8.306;2022-07-29T00:35:47;99775.44;;;20.44;54.86
56671;BME280;42545;50.054;8.306;2022-07-29T00:38:14;99766.81;;;20.33;54.69
56671;BME280;42545;50.054;8.306;2022-07-29T00:40:43;99781.47;;;20.21;54.82
56671;BME280;42545;50.054;8.306;2022-07-29T00:43:12;99779.06;;;20.10;54.61
56671;BME280;42545;50.054;8.306;2022-07-29T00:45:39;99772.94;;;20.05;54.63
56671;BME280;42545;50.054;8.306;2022-07-29T00:48:08;99779.31;;;20.01;54.47
56671;BME280;42545;50.054;8.306;2022-07-29T00:50:36;99777.59;;;19.98;54.62
56671;BME280;42545;50.054;8.306;2022-07-29T00:53:05;99774.06;;;19.96;54.38
56671;BME280;42545;50.054;8.306;2022-07-29T00:55:31;99769.72;;;19.92;54.13
56671;BME280;42545;50.054;8.306;2022-07-29T00:57:59;99761.84;;;19.88;53.84
56671;BME280;42545;50.054;8.306;2022-07-29T01:00:28;99764.41;;;19.91;56.01
56671;BME280;42545;50.054;8.306;2022-07-29T01:02:56;99753.78;;;19.88;57.22
56671;BME280;42545;50.054;8.306;2022-07-29T01:05:26;99745.91;;;19.82;56.10
56671;BME280;42545;50.054;8.306;2022-07-29T01:07:54;99747.75;;;19.80;56.01
56671;BME280;42545;50.054;8.306;2022-07-29T01:10:24;99746.88;;;19.79;55.79
56671;BME280;42545;50.054;8.306;2022-07-29T01:12:56;99737.03;;;19.80;55.86
56671;BME280;42545;50.054;8.306;2022-07-29T01:15:24;99736.13;;;19.81;54.64
56671;BME280;42545;50.054;8.306;2022-07-29T01:17:57;99748.59;;;19.82;52.54
56671;BME280;42545;50.054;8.306;2022-07-29T01:20:42;99757.47;;;19.82;52.73
56671;BME280;42545;50.054;8.306;2022-07-29T01:23:36;99767.50;;;19.75;53.46
56671;BME280;42545;50.054;8.306;2022-07-29T01:26:23;99778.69;;;19.55;60.76
56671;BME280;42545;50.054;8.306;2022-07-29T01:29:00;99778.13;;;19.41;61.90
56671;BME280;42545;50.054;8.306;2022-07-29T01:31:32;99770.53;;;19.24;62.87
56671;BME280;42545;50.054;8.306;2022-07-29T01:34:03;99761.91;;;19.11;64.68
56671;BME280;42545;50.054;8.306;2022-07-29T01:36:34;99767.50;;;19.00;67.00
56671;BME280;42545;50.054;8.306;2022-07-29T01:39:08;99765.06;;;18.90;68.44
56671;BME280;42545;50.054;8.306;2022-07-29T01:41:38;99767.94;;;18.79;70.01
56671;BME280;42545;50.054;8.306;2022-07-29T01:44:13;99771.75;;;18.67;69.42
56671;BME280;42545;50.054;8.306;2022-07-29T01:46:47;99766.69;;;18.55;69.00
56671;BME280;42545;50.054;8.306;2022-07-29T01:49:20;99774.00;;;18.43;68.21
56671;BME280;42545;50.054;8.306;2022-07-29T01:51:50;99776.75;;;18.40;69.94
56671;BME280;42545;50.054;8.306;2022-07-29T01:54:19;99766.31;;;18.28;71.41
56671;BME280;42545;50.054;8.306;2022-07-29T01:56:49;99751.34;;;18.19;73.37
56671;BME280;42545;50.054;8.306;2022-07-29T01:59:18;99739.94;;;18.11;75.53
56671;BME280;42545;50.054;8.306;2022-07-29T02:01:48;99744.53;;;18.04;75.80
56671;BME280;42545;50.054;8.306;2022-07-29T02:04:16;99744.69;;;17.95;76.38
56671;BME280;42545;50.054;8.306;2022-07-29T02:06:48;99747.53;;;17.84;75.75
56671;BME280;42545;50.054;8.306;2022-07-29T02:09:16;99745.00;;;17.77;75.88
56671;BME280;42545;50.054;8.306;2022-07-29T02:11:53;99752.25;;;17.68;77.29
56671;BME280;42545;50.054;8.306;2022-07-29T02:14:24;99752.38;;;17.62;78.39
56671;BME280;42545;50.054;8.306;2022-07-29T02:16:54;99750.66;;;17.58;79.23
56671;BME280;42545;50.054;8.306;2022-07-29T02:19:25;99738.31;;;17.53;80.63
56671;BME280;42545;50.054;8.306;2022-07-29T02:21:53;99731.31;;;17.45;81.91
56671;BME280;42545;50.054;8.306;2022-07-29T02:24:24;99734.19;;;17.33;82.13
56671;BME280;42545;50.054;8.306;2022-07-29T02:26:53;99724.53;;;17.24;83.99
56671;BME280;42545;50.054;8.306;2022-07-29T02:29:26;99729.94;;;17.21;85.09
56671;BME280;42545;50.054;8.306;2022-07-29T02:31:55;99732.63;;;17.20;85.71
56671;BME280;42545;50.054;8.306;2022-07-29T02:34:23;99738.00;;;17.17;86.54
56671;BME280;42545;50.054;8.306;2022-07-29T02:36:52;99732.72;;;17.12;86.88
56671;BME280;42545;50.054;8.306;2022-07-29T02:39:22;99733.69;;;17.09;86.94
56671;BME280;42545;50.054;8.306;2022-07-29T02:41:55;99724.88;;;17.03;85.63
56671;BME280;42545;50.054;8.306;2022-07-29T02:44:26;99731.16;;;16.99;84.67
56671;BME280;42545;50.054;8.306;2022-07-29T02:47:00;99725.00;;;16.95;84.74
56671;BME280;42545;50.054;8.306;2022-07-29T02:49:36;99718.00;;;16.88;84.27
56671;BME280;42545;50.054;8.306;2022-07-29T02:52:07;99721.63;;;16.81;83.47
56671;BME280;42545;50.054;8.306;2022-07-29T02:54:39;99712.84;;;16.74;83.11
56671;BME280;42545;50.054;8.306;2022-07-29T02:57:17;99716.44;;;16.71;82.80
56671;BME280;42545;50.054;8.306;2022-07-29T02:59:51;99708.53;;;16.65;81.59
56671;BME280;42545;50.054;8.306;2022-07-29T03:02:22;99712.91;;;16.69;80.87
56671;BME280;42545;50.054;8.306;2022-07-29T03:04:51;99712.03;;;16.70;81.04
56671;BME280;42545;50.054;8.306;2022-07-29T03:07:21;99711.94;;;16.73;81.88
56671;BME280;42545;50.054;8.306;2022-07-29T03:09:49;99712.84;;;16.74;82.31
56671;BME280;42545;50.054;8.306;2022-07-29T03:12:17;99713.72;;;16.76;82.56
56671;BME280;42545;50.054;8.306;2022-07-29T03:14:44;99702.19;;;16.76;82.98
56671;BME280;42545;50.054;8.306;2022-07-29T03:17:14;99703.09;;;16.71;81.72
56671;BME280;42545;50.054;8.306;2022-07-29T03:19:42;99704.03;;;16.69;80.80
56671;BME280;42545;50.054;8.306;2022-07-29T03:22:09;99706.72;;;16.69;80.50
56671;BME280;42545;50.054;8.306;2022-07-29T03:24:36;99699.56;;;16.71;81.50
56671;BME280;42545;50.054;8.306;2022-07-29T03:27:04;99694.22;;;16.74;82.79
56671;BME280;42545;50.054;8.306;2022-07-29T03:29:32;99699.47;;;16.77;83.37
56671;BME280;42545;50.054;8.306;2022-07-29T03:31:59;99702.19;;;16.74;83.62
56671;BME280;42545;50.054;8.306;2022-07-29T03:34:30;99704.88;;;16.72;84.35
56671;BME280;42545;50.054;8.306;2022-07-29T03:36:56;99703.13;;;16.70;84.14
56671;BME280;42545;50.054;8.306;2022-07-29T03:39:26;99704.94;;;16.68;84.43
56671;BME280;42545;50.054;8.306;2022-07-29T03:41:55;99705.00;;;16.65;84.80
56671;BME280;42545;50.054;8.306;2022-07-29T03:44:27;99703.31;;;16.58;84.67
56671;BME280;42545;50.054;8.306;2022-07-29T03:46:57;99702.50;;;16.51;84.69
56671;BME280;42545;50.054;8.306;2022-07-29T03:49:28;99707.00;;;16.46;85.61
56671;BME280;42545;50.054;8.306;2022-07-29T03:51:56;99706.19;;;16.41;85.76
56671;BME280;42545;50.054;8.306;2022-07-29T03:54:23;99705.41;;;16.36;86.25
56671;BME280;42545;50.054;8.306;2022-07-29T03:56:52;99707.22;;;16.32;87.13
56671;BME280;42545;50.054;8.306;2022-07-29T03:59:20;99719.63;;;16.31;87.22
56671;BME280;42545;50.054;8.306;2022-07-29T04:01:47;99707.28;;;16.26;86.86
56671;BME280;42545;50.054;8.306;2022-07-29T04:04:16;99710.03;;;16.20;86.13
56671;BME280;42545;50.054;8.306;2022-07-29T04:06:45;99711.75;;;16.21;86.24
56671;BME280;42545;50.054;8.306;2022-07-29T04:09:12;99710.91;;;16.17;86.57
56671;BME280;42545;50.054;8.306;2022-07-29T04:11:40;99708.31;;;16.12;86.80
56671;BME280;42545;50.054;8.306;2022-07-29T04:14:07;99715.44;;;16.12;87.13
56671;BME280;42545;50.054;8.306;2022-07-29T04:16:34;99720.81;;;16.07;86.91
56671;BME280;42545;50.054;8.306;2022-07-29T04:19:00;99726.19;;;16.01;86.81
56671;BME280;42545;50.054;8.306;2022-07-29T04:21:29;99724.44;;;15.99;88.01
56671;BME280;42545;50.054;8.306;2022-07-29T04:23:59;99724.53;;;15.91;87.54
56671;BME280;42545;50.054;8.306;2022-07-29T04:26:25;99729.00;;;15.86;87.35
56671;BME280;42545;50.054;8.306;2022-07-29T04:28:52;99737.94;;;15.79;87.59
56671;BME280;42545;50.054;8.306;2022-07-29T04:31:19;99741.53;;;15.73;87.98
56671;BME280;42545;50.054;8.306;2022-07-29T04:33:46;99739.78;;;15.70;88.18
56671;BME280;42545;50.054;8.306;2022-07-29T04:36:13;99745.13;;;15.69;88.60
56671;BME280;42545;50.054;8.306;2022-07-29T04:38:40;99747.78;;;15.69;89.07
56671;BME280;42545;50.054;8.306;2022-07-29T04:41:08;99747.78;;;15.69;89.64
56671;BME280;42545;50.054;8.306;2022-07-29T04:43:35;99748.66;;;15.69;89.84
56671;BME280;42545;50.054;8.306;2022-07-29T04:46:03;99745.13;;;15.69;89.27
56671;BME280;42545;50.054;8.306;2022-07-29T04:48:32;99751.31;;;15.74;89.29
56671;BME280;42545;50.054;8.306;2022-07-29T04:50:59;99754.81;;;15.78;89.26
56671;BME280;42545;50.054;8.306;2022-07-29T04:53:26;99750.38;;;15.80;88.28
56671;BME280;42545;50.054;8.306;2022-07-29T04:55:52;99740.56;;;15.85;87.65
56671;BME280;42545;50.054;8.306;2022-07-29T04:58:21;99744.94;;;15.92;87.43
56671;BME280;42545;50.054;8.306;2022-07-29T05:00:49;99742.19;;;16.00;85.89
56671;BME280;42545;50.054;8.306;2022-07-29T05:03:16;99741.22;;;16.05;86.16
56671;BME280;42545;50.054;8.306;2022-07-29T05:05:42;99735.81;;;16.11;86.16
56671;BME280;42545;50.054;8.306;2022-07-29T05:08:09;99741.97;;;16.17;86.55
56671;BME280;42545;50.054;8.306;2022-07-29T05:10:36;99743.69;;;16.22;86.58
56671;BME280;42545;50.054;8.306;2022-07-29T05:13:04;99739.22;;;16.26;86.57
56671;BME280;42545;50.054;8.306;2022-07-29T05:15:33;99742.72;;;16.31;86.49
56671;BME280;42545;50.054;8.306;2022-07-29T05:18:00;99747.09;;;16.35;86.61
56671;BME280;42545;50.054;8.306;2022-07-29T05:20:31;99745.25;;;16.42;86.52
56671;BME280;42545;50.054;8.306;2022-07-29T05:23:02;99751.41;;;16.47;86.65
56671;BME280;42545;50.054;8.306;2022-07-29T05:25:29;99747.75;;;16.54;86.76
56671;BME280;42545;50.054;8.306;2022-07-29T05:27:56;99751.16;;;16.64;86.82
56671;BME280;42545;50.054;8.306;2022-07-29T05:30:26;99750.19;;;16.71;85.66
56671;BME280;42545;50.054;8.306;2022-07-29T05:32:54;99752.75;;;16.77;84.78
56671;BME280;42545;50.054;8.306;2022-07-29T05:35:23;99754.47;;;16.84;82.83
56671;BME280;42545;50.054;8.306;2022-07-29T05:37:50;99758.78;;;16.95;81.60
56671;BME280;42545;50.054;8.306;2022-07-29T05:40:17;99745.28;;;17.05;80.99
56671;BME280;42545;50.054;8.306;2022-07-29T05:42:44;99740.66;;;17.17;81.59
56671;BME280;42545;50.054;8.306;2022-07-29T05:45:11;99752.97;;;17.27;81.11
56671;BME280;42545;50.054;8.306;2022-07-29T05:47:37;99751.03;;;17.35;80.29
56671;BME280;42545;50.054;8.306;2022-07-29T05:50:06;99750.91;;;17.43;78.63
56671;BME280;42545;50.054;8.306;2022-07-29T05:52:35;99749.94;;;17.48;76.18
56671;BME280;42545;50.054;8.306;2022-07-29T05:55:04;99744.41;;;17.59;75.41
56671;BME280;42545;50.054;8.306;2022-07-29T05:57:32;99748.66;;;17.71;75.99
56671;BME280;42545;50.054;8.306;2022-07-29T05:59:59;99757.38;;;17.81;75.93
56671;BME280;42545;50.054;8.306;2022-07-29T06:02:26;99757.19;;;17.93;77.05
56671;BME280;42545;50.054;8.306;2022-07-29T06:04:54;99763.22;;;18.03;76.50
56671;BME280;42545;50.054;8.306;2022-07-29T06:07:22;99764.84;;;18.13;75.14
56671;BME280;42545;50.054;8.306;2022-07-29T06:09:49;99761.03;;;18.25;73.21
56671;BME280;42545;50.054;8.306;2022-07-29T06:12:16;99768.81;;;18.36;72.06
56671;BME280;42545;50.054;8.306;2022-07-29T06:14:45;99766.81;;;18.47;71.92
56671;BME280;42545;50.054;8.306;2022-07-29T06:17:12;99767.44;;;18.60;72.45
56671;BME280;42545;50.054;8.306;2022-07-29T06:19:39;99761.06;;;18.67;71.15
56671;BME280;42545;50.054;8.306;2022-07-29T06:22:05;99767.09;;;18.77;70.89
56671;BME280;42545;50.054;8.306;2022-07-29T06:24:33;99757.94;;;18.89;70.59
56671;BME280;42545;50.054;8.306;2022-07-29T06:27:02;99758.53;;;19.01;68.71
56671;BME280;42545;50.054;8.306;2022-07-29T06:29:30;99761.84;;;19.13;65.84
56671;BME280;42545;50.054;8.306;2022-07-29T06:31:56;99766.03;;;19.25;63.59
56671;BME280;42545;50.054;8.306;2022-07-29T06:34:23;99765.72;;;19.38;63.08
56671;BME280;42545;50.054;8.306;2022-07-29T06:36:50;99771.47;;;19.57;62.99
56671;BME280;42545;50.054;8.306;2022-07-29T06:39:17;99755.13;;;19.70;60.58
56671;BME280;42545;50.054;8.306;2022-07-29T06:41:48;99761.94;;;19.83;60.27
56671;BME280;42545;50.054;8.306;2022-07-29T06:44:15;99759.81;;;19.96;59.01
56671;BME280;42545;50.054;8.306;2022-07-29T06:46:42;99765.75;;;20.07;56.90
56671;BME280;42545;50.054;8.306;2022-07-29T06:49:09;99760.13;;;20.16;56.12
56671;BME280;42545;50.054;8.306;2022-07-29T06:51:37;99769.66;;;20.28;55.02
56671;BME280;42545;50.054;8.306;2022-07-29T06:54:04;99768.53;;;20.37;54.64
56671;BME280;42545;50.054;8.306;2022-07-29T06:56:32;99765.50;;;20.48;54.33
56671;BME280;42545;50.054;8.306;2022-07-29T06:59:02;99771.41;;;20.61;55.88
56671;BME280;42545;50.054;8.306;2022-07-29T07:01:29;99774.69;;;20.72;53.66
56671;BME280;42545;50.054;8.306;2022-07-29T07:03:56;99775.31;;;20.80;52.74
56671;BME280;42545;50.054;8.306;2022-07-29T07:06:23;99776.94;;;20.86;52.96
56671;BME280;42545;50.054;8.306;2022-07-29T07:08:50;99783.91;;;20.91;51.42
56671;BME280;42545;50.054;8.306;2022-07-29T07:11:16;99790.81;;;21.00;49.96
56671;BME280;42545;50.054;8.306;2022-07-29T07:13:43;99789.59;;;21.10;51.53
56671;BME280;42545;50.054;8.306;2022-07-29T07:16:11;99789.16;;;21.24;50.74
56671;BME280;42545;50.054;8.306;2022-07-29T07:18:38;99785.00;;;21.42;51.40
56671;BME280;42545;50.054;8.306;2022-07-29T07:21:06;99783.56;;;21.60;51.21
56671;BME280;42545;50.054;8.306;2022-07-29T07:23:33;99793.00;;;21.72;49.14
56671;BME280;42545;50.054;8.306;2022-07-29T07:26:01;99791.75;;;21.82;49.15
56671;BME280;42545;50.054;8.306;2022-07-29T07:28:28;99792.31;;;21.92;48.11
56671;BME280;42545;50.054;8.306;2022-07-29T07:30:55;99787.63;;;21.99;47.85
56671;BME280;42545;50.054;8.306;2022-07-29T07:33:23;99790.84;;;22.08;47.74
56671;BME280;42545;50.054;8.306;2022-07-29T07:35:51;99790.66;;;22.15;47.60
56671;BME280;42545;50.054;8.306;2022-07-29T07:38:17;99795.84;;;22.19;46.76
56671;BME280;42545;50.054;8.306;2022-07-29T07:40:44;99796.53;;;22.26;46.14
56671;BME280;42545;50.054;8.306;2022-07-29T07:43:11;99802.59;;;22.33;45.83
56671;BME280;42545;50.054;8.306;2022-07-29T07:45:38;99790.59;;;22.41;45.80
56671;BME280;42545;50.054;8.306;2022-07-29T07:48:05;99790.34;;;22.49;46.10
56671;BME280;42545;50.054;8.306;2022-07-29T07:50:33;99798.16;;;22.55;45.58
56671;BME280;42545;50.054;8.306;2022-07-29T07:53:00;99786.34;;;22.59;45.07
56671;BME280;42545;50.054;8.306;2022-07-29T07:55:29;99794.06;;;22.69;45.86
56671;BME280;42545;50.054;8.306;2022-07-29T07:57:55;99788.28;;;22.79;46.86
56671;BME280;42545;50.054;8.306;2022-07-29T08:00:22;99783.47;;;22.89;46.28
56671;BME280;42545;50.054;8.306;2022-07-29T08:02:49;99786.72;;;22.97;46.22
56671;BME280;42545;50.054;8.306;2022-07-29T08:05:16;99786.38;;;23.07;45.69
56671;BME280;42545;50.054;8.306;2022-07-29T08:07:46;99795.16;;;23.12;45.39
56671;BME280;42545;50.054;8.306;2022-07-29T08:10:13;99795.97;;;23.14;45.84
56671;BME280;42545;50.054;8.306;2022-07-29T08:12:40;99786.91;;;23.16;45.02
56671;BME280;42545;50.054;8.306;2022-07-29T08:15:08;99791.84;;;23.27;45.67
56671;BME280;42545;50.054;8.306;2022-07-29T08:17:34;99789.91;;;23.31;46.35
56671;BME280;42545;50.054;8.306;2022-07-29T08:20:01;99790.75;;;23.33;45.86
56671;BME280;42545;50.054;8.306;2022-07-29T08:22:28;99786.09;;;23.36;45.35
56671;BME280;42545;50.054;8.306;2022-07-29T08:24:56;99794.75;;;23.45;45.32
56671;BME280;42545;50.054;8.306;2022-07-29T08:27:23;99788.22;;;23.50;45.03
56671;BME280;42545;50.054;8.306;2022-07-29T08:29:51;99791.50;;;23.58;45.25
56671;BME280;42545;50.054;8.306;2022-07-29T08:32:18;99788.59;;;23.63;44.38
56671;BME280;42545;50.054;8.306;2022-07-29T08:34:45;99790.16;;;23.69;44.63
56671;BME280;42545;50.054;8.306;2022-07-29T08:37:12;99789.72;;;23.79;43.84
56671;BME280;42545;50.054;8.306;2022-07-29T08:39:39;99794.84;;;23.86;43.58
56671;BME280;42545;50.054;8.306;2022-07-29T08:42:08;99792.09;;;23.87;43.47
56671;BME280;42545;50.054;8.306;2022-07-29T08:44:36;99796.09;;;23.99;44.00
56671;BME280;42545;50.054;8.306;2022-07-29T08:47:03;99795.75;;;24.07;44.29
56671;BME280;42545;50.054;8.306;2022-07-29T08:49:33;99795.47;;;24.13;43.05
56671;BME280;42545;50.054;8.306;2022-07-29T08:52:00;99798.84;;;24.18;43.13
56671;BME280;42545;50.054;8.306;2022-07-29T08:54:27;99800.16;;;24.30;43.60
56671;BME280;42545;50.054;8.306;2022-07-29T08:56:54;99798.19;;;24.33;43.07
56671;BME280;42545;50.054;8.306;2022-07-29T08:59:25;99802.63;;;24.34;43.61
56671;BME280;42545;50.054;8.306;2022-07-29T09:01:54;99797.97;;;24.38;43.28
56671;BME280;42545;50.054;8.306;2022-07-29T09:04:24;99797.63;;;24.46;42.99
56671;BME280;42545;50.054;8.306;2022-07-29T09:06:57;99790.63;;;24.42;43.28
56671;BME280;42545;50.054;8.306;2022-07-29T09:09:26;99796.97;;;24.41;43.11
56671;BME280;42545;50.054;8.306;2022-07-29T09:11:53;99798.50;;;24.46;42.65
56671;BME280;42545;50.054;8.306;2022-07-29T09:14:20;99792.97;;;24.49;42.20
56671;BME280;42545;50.054;8.306;2022-07-29T09:16:51;99788.53;;;24.48;42.70
56671;BME280;42545;50.054;8.306;2022-07-29T09:19:20;99793.75;;;24.51;42.52
56671;BME280;42545;50.054;8.306;2022-07-29T09:21:47;99791.94;;;24.53;42.64
56671;BME280;42545;50.054;8.306;2022-07-29T09:24:36;99788.34;;;24.53;43.37
56671;BME280;42545;50.054;8.306;2022-07-29T09:27:09;99789.06;;;24.56;43.26
56671;BME280;42545;50.054;8.306;2022-07-29T09:29:36;99788.00;;;24.61;43.08
56671;BME280;42545;50.054;8.306;2022-07-29T09:32:09;99784.00;;;24.69;42.66
56671;BME280;42545;50.054;8.306;2022-07-29T09:34:37;99785.69;;;24.72;42.79
56671;BME280;42545;50.054;8.306;2022-07-29T09:37:04;99783.50;;;24.80;42.48
56671;BME280;42545;50.054;8.306;2022-07-29T09:39:33;99784.16;;;24.85;42.44
56671;BME280;42545;50.054;8.306;2022-07-29T09:42:02;99776.94;;;24.86;42.33
56671;BME280;42545;50.054;8.306;2022-07-29T09:44:44;99767.84;;;24.88;42.55
56671;BME280;42545;50.054;8.306;2022-07-29T09:47:15;99769.13;;;24.99;42.60
56671;BME280;42545;50.054;8.306;2022-07-29T09:49:53;99768.53;;;25.11;42.92
56671;BME280;42545;50.054;8.306;2022-07-29T09:52:23;99759.66;;;25.28;42.84
56671;BME280;42545;50.054;8.306;2022-07-29T09:54:50;99771.03;;;25.35;42.94
56671;BME280;42545;50.054;8.306;2022-07-29T09:57:24;99769.13;;;25.37;42.42
56671;BME280;42545;50.054;8.306;2022-07-29T09:59:56;99775.25;;;25.40;42.58
56671;BME280;42545;50.054;8.306;2022-07-29T10:02:30;99768.13;;;25.39;42.56
56671;BME280;42545;50.054;8.306;2022-07-29T10:04:57;99769.00;;;25.40;42.82
56671;BME280;42545;50.054;8.306;2022-07-29T10:07:25;99763.19;;;25.47;42.77
56671;BME280;42545;50.054;8.306;2022-07-29T10:09:56;99765.75;;;25.50;42.64
56671;BME280;42545;50.054;8.306;2022-07-29T10:12:24;99774.25;;;25.60;43.06
56671;BME280;42545;50.054;8.306;2022-07-29T10:14:51;99758.78;;;25.64;42.84
56671;BME280;42545;50.054;8.306;2022-07-29T10:17:18;99762.34;;;25.64;42.84
56671;BME280;42545;50.054;8.306;2022-07-29T10:19:47;99768.09;;;25.76;43.49
56671;BME280;42545;50.054;8.306;2022-07-29T10:22:15;99768.22;;;25.90;42.37
56671;BME280;42545;50.054;8.306;2022-07-29T10:24:43;99766.84;;;26.00;42.41
56671;BME280;42545;50.054;8.306;2022-07-29T10:27:10;99771.84;;;26.08;42.06
56671;BME280;42545;50.054;8.306;2022-07-29T10:29:37;99756.69;;;26.05;41.22
56671;BME280;42545;50.054;8.306;2022-07-29T10:32:19;99759.94;;;25.95;40.84
56671;BME280;42545;50.054;8.306;2022-07-29T10:35:01;99762.72;;;25.93;41.83
56671;BME280;42545;50.054;8.306;2022-07-29T10:37:44;99757.09;;;25.98;41.40
56671;BME280;42545;50.054;8.306;2022-07-29T10:40:22;99762.88;;;26.07;41.71
56671;BME280;42545;50.054;8.306;2022-07-29T10:43:17;99755.56;;;26.09;41.58
56671;BME280;42545;50.054;8.306;2022-07-29T10:45:47;99751.34;;;26.21;41.55
56671;BME280;42545;50.054;8.306;2022-07-29T10:48:14;99751.56;;;26.34;41.33
56671;BME280;42545;50.054;8.306;2022-07-29T10:50:58;99740.34;;;26.58;42.02
56671;BME280;42545;50.054;8.306;2022-07-29T10:53:46;99748.59;;;26.72;40.63
56671;BME280;42545;50.054;8.306;2022-07-29T10:56:25;99751.69;;;26.82;40.39
56671;BME280;42545;50.054;8.306;2022-07-29T10:59:22;99744.97;;;26.89;41.21
56671;BME280;42545;50.054;8.306;2022-07-29T11:01:51;99739.00;;;26.82;40.23
56671;BME280;42545;50.054;8.306;2022-07-29T11:05:00;99739.88;;;26.83;40.73
56671;BME280;42545;50.054;8.306;2022-07-29T11:07:28;99739.88;;;26.83;40.70
56671;BME280;42545;50.054;8.306;2022-07-29T11:10:22;99733.88;;;26.94;41.19
56671;BME280;42545;50.054;8.306;2022-07-29T11:12:51;99735.63;;;26.95;40.43
56671;BME280;42545;50.054;8.306;2022-07-29T11:15:20;99728.03;;;26.85;40.65
56671;BME280;42545;50.054;8.306;2022-07-29T11:18:04;99733.97;;;26.76;40.31
56671;BME280;42545;50.054;8.306;2022-07-29T11:20:34;99730.47;;;26.74;41.20
56671;BME280;42545;50.054;8.306;2022-07-29T11:23:01;99727.25;;;26.83;40.48
56671;BME280;42545;50.054;8.306;2022-07-29T11:25:43;99728.53;;;26.92;41.05
56671;BME280;42545;50.054;8.306;2022-07-29T11:28:16;99722.34;;;27.06;40.42
56671;BME280;42545;50.054;8.306;2022-07-29T11:30:48;99719.88;;;27.17;39.61
56671;BME280;42545;50.054;8.306;2022-07-29T11:33:27;99724.00;;;27.24;39.37
56671;BME280;42545;50.054;8.306;2022-07-29T11:36:14;99726.19;;;27.34;39.70
56671;BME280;42545;50.054;8.306;2022-07-29T11:38:42;99723.31;;;27.37;39.73
56671;BME280;42545;50.054;8.306;2022-07-29T11:41:22;99724.88;;;27.41;39.46
56671;BME280;42545;50.054;8.306;2022-07-29T11:43:51;99715.50;;;27.47;39.56
56671;BME280;42545;50.054;8.306;2022-07-29T11:49:00;99720.81;;;27.64;39.23
56671;BME280;42545;50.054;8.306;2022-07-29T11:51:26;99708.91;;;27.67;38.26
56671;BME280;42545;50.054;8.306;2022-07-29T11:53:54;99714.88;;;27.57;38.72
56671;BME280;42545;50.054;8.306;2022-07-29T11:56:23;99710.88;;;27.49;39.01
56671;BME280;42545;50.054;8.306;2022-07-29T11:59:03;99711.31;;;27.41;39.13
56671;BME280;42545;50.054;8.306;2022-07-29T12:01:30;99710.28;;;27.44;39.12
56671;BME280;42545;50.054;8.306;2022-07-29T12:04:03;99707.28;;;27.48;39.76
56671;BME280;42545;50.054;8.306;2022-07-29T12:06:30;99710.06;;;27.63;38.68
56671;BME280;42545;50.054;8.306;2022-07-29T12:08:57;99707.66;;;27.72;38.38
56671;BME280;42545;50.054;8.306;2022-07-29T12:11:24;99699.13;;;27.64;38.97
56671;BME280;42545;50.054;8.306;2022-07-29T12:13:52;99698.22;;;27.64;38.66
56671;BME280;42545;50.054;8.306;2022-07-29T12:16:21;99691.78;;;27.66;38.73
56671;BME280;42545;50.054;8.306;2022-07-29T12:18:55;99697.31;;;27.79;39.48
56671;BME280;42545;50.054;8.306;2022-07-29T12:21:22;99698.44;;;27.91;38.21
56671;BME280;42545;50.054;8.306;2022-07-29T12:23:52;99690.47;;;27.88;38.49
56671;BME280;42545;50.054;8.306;2022-07-29T12:26:20;99692.41;;;27.86;38.33
56671;BME280;42545;50.054;8.306;2022-07-29T12:28:47;99685.91;;;27.88;38.45
56671;BME280;42545;50.054;8.306;2022-07-29T12:31:15;99679.34;;;27.92;37.70
56671;BME280;42545;50.054;8.306;2022-07-29T12:33:51;99680.03;;;27.96;37.76
56671;BME280;42545;50.054;8.306;2022-07-29T12:36:19;99668.84;;;28.02;38.06
56671;BME280;42545;50.054;8.306;2022-07-29T12:38:46;99681.81;;;28.11;37.20
56671;BME280;42545;50.054;8.306;2022-07-29T12:41:13;99678.53;;;28.21;38.18
56671;BME280;42545;50.054;8.306;2022-07-29T12:43:52;99676.69;;;28.35;37.39
56671;BME280;42545;50.054;8.306;2022-07-29T12:46:19;99670.97;;;28.54;36.96
56671;BME280;42545;50.054;8.306;2022-07-29T12:48:50;99668.91;;;28.72;36.53
56671;BME280;42545;50.054;8.306;2022-07-29T12:51:28;99659.50;;;28.78;36.34
56671;BME280;42545;50.054;8.306;2022-07-29T12:54:04;99660.16;;;28.82;36.71
56671;BME280;42545;50.054;8.306;2022-07-29T12:56:33;99662.59;;;28.86;36.36
56671;BME280;42545;50.054;8.306;2022-07-29T12:59:13;99663.88;;;28.81;36.37
56671;BME280;42545;50.054;8.306;2022-07-29T13:01:40;99655.81;;;28.79;36.64
56671;BME280;42545;50.054;8.306;2022-07-29T13:04:08;99659.50;;;28.78;36.59
56671;BME280;42545;50.054;8.306;2022-07-29T13:06:38;99664.66;;;28.68;36.64
56671;BME280;42545;50.054;8.306;2022-07-29T13:09:08;99665.06;;;28.48;36.12
56671;BME280;42545;50.054;8.306;2022-07-29T13:11:38;99673.28;;;28.32;36.41
56671;BME280;42545;50.054;8.306;2022-07-29T13:14:08;99673.19;;;28.19;36.66
56671;BME280;42545;50.054;8.306;2022-07-29T13:16:35;99689.47;;;28.05;37.10